createdAt,value
2023-05-14T00:02:03.043Z,7.53
2023-05-14T00:05:06.128Z,7.32
2023-05-14T00:08:08.461Z,7.32
2023-05-14T00:11:11.262Z,8.07
2023-05-14T00:14:13.599Z,7.50
2023-05-14T00:17:16.280Z,7.82
2023-05-14T00:20:19.008Z,7.20
2023-05-14T00:23:24.718Z,7.55
2023-05-14T00:26:27.103Z,7.43
2023-05-14T00:29:30.054Z,7.23
2023-05-14T00:32:33.286Z,7.37
2023-05-14T00:35:36.359Z,7.55
2023-05-14T00:38:38.726Z,7.57
2023-05-14T00:41:43.512Z,7.45
2023-05-14T00:44:46.002Z,7.67
2023-05-14T00:47:53.598Z,7.00
2023-05-14T00:50:56.125Z,6.97
2023-05-14T00:53:59.010Z,7.10
2023-05-14T00:57:02.071Z,7.53
2023-05-14T01:00:05.474Z,6.57
2023-05-14T01:03:08.720Z,7.57
2023-05-14T01:06:11.759Z,7.32
2023-05-14T01:09:36.962Z,6.97
2023-05-14T01:12:43.381Z,7.62
2023-05-14T01:15:47.863Z,6.70
2023-05-14T01:18:52.399Z,8.07
2023-05-14T01:21:54.780Z,7.53
2023-05-14T01:24:57.647Z,7.18
2023-05-14T01:28:32.773Z,6.95
2023-05-14T01:31:39.075Z,6.80
2023-05-14T01:34:41.959Z,6.87
2023-05-14T01:37:46.006Z,7.72
2023-05-14T01:40:50.450Z,7.47
2023-05-14T01:43:53.399Z,7.12
2023-05-14T01:46:55.889Z,7.13
2023-05-14T01:49:58.599Z,7.72
2023-05-14T01:53:00.967Z,6.97
2023-05-14T01:56:03.857Z,7.20
2023-05-14T01:59:06.257Z,6.80
2023-05-14T02:02:09.000Z,6.80
2023-05-14T02:05:12.289Z,7.35
2023-05-14T02:08:14.634Z,7.12
2023-05-14T02:11:17.407Z,7.35
2023-05-14T02:14:20.185Z,6.80
2023-05-14T02:17:22.882Z,6.70
2023-05-14T02:20:25.822Z,7.05
2023-05-14T02:23:40.352Z,6.78
2023-05-14T02:26:44.048Z,6.30
2023-05-14T02:29:46.425Z,7.70
2023-05-14T02:32:49.756Z,6.90
2023-05-14T02:35:52.347Z,6.87
2023-05-14T02:38:55.103Z,6.93
2023-05-14T02:41:57.513Z,7.18
2023-05-14T02:45:00.248Z,7.43
2023-05-14T02:48:02.653Z,6.60
2023-05-14T02:51:06.305Z,6.72
2023-05-14T02:54:08.631Z,6.90
2023-05-14T02:57:11.218Z,6.85
2023-05-14T03:00:13.945Z,6.80
2023-05-14T03:03:17.053Z,6.67
2023-05-14T03:06:19.746Z,6.70
2023-05-14T03:09:22.490Z,6.30
2023-05-14T03:12:24.980Z,6.12
2023-05-14T03:15:27.601Z,6.75
2023-05-14T03:18:30.826Z,6.50
2023-05-14T03:21:33.644Z,6.30
2023-05-14T03:24:39.112Z,6.18
2023-05-14T03:27:42.071Z,6.43
2023-05-14T03:30:44.652Z,5.95
2023-05-14T03:33:47.428Z,6.13
2023-05-14T03:36:50.136Z,6.05
2023-05-14T03:39:52.755Z,6.75
2023-05-14T03:42:56.075Z,6.60
2023-05-14T03:45:58.925Z,6.50
2023-05-14T03:49:01.674Z,6.00
2023-05-14T03:52:04.849Z,6.28
2023-05-14T03:55:07.590Z,6.50
2023-05-14T03:58:14.214Z,5.60
2023-05-14T04:01:16.863Z,6.00
2023-05-14T04:04:19.567Z,6.00
2023-05-14T04:07:22.148Z,5.93
2023-05-14T04:10:25.092Z,6.00
2023-05-14T04:13:28.960Z,5.45
2023-05-14T04:16:31.772Z,5.80
2023-05-14T04:19:34.194Z,5.67
2023-05-14T04:22:38.469Z,5.60
2023-05-14T04:25:40.751Z,5.50
2023-05-14T04:28:43.390Z,5.50
2023-05-14T04:31:46.425Z,5.25
2023-05-14T04:34:49.241Z,5.20
2023-05-14T04:37:51.631Z,5.30
2023-05-14T04:40:54.496Z,5.30
2023-05-14T04:43:59.224Z,5.15
2023-05-14T04:47:02.759Z,4.75
2023-05-14T04:50:06.529Z,4.80
2023-05-14T04:53:09.145Z,5.07
2023-05-14T04:56:11.433Z,4.62
2023-05-14T04:59:14.057Z,4.70
2023-05-14T05:02:16.544Z,5.12
2023-05-14T05:05:19.284Z,5.00
2023-05-14T05:08:21.575Z,4.72
2023-05-14T05:11:24.334Z,5.28
2023-05-14T05:14:26.670Z,5.18
2023-05-14T05:17:30.029Z,4.28
2023-05-14T05:20:32.563Z,4.87
2023-05-14T05:23:35.174Z,4.78
2023-05-14T05:26:37.503Z,5.82
2023-05-14T05:29:40.228Z,4.43
2023-05-14T05:32:42.654Z,4.87
2023-05-14T05:35:45.323Z,5.50
2023-05-14T05:38:47.742Z,5.07
2023-05-14T05:41:50.658Z,5.40
2023-05-14T05:44:53.004Z,5.20
2023-05-14T05:47:55.811Z,5.50
2023-05-14T05:50:58.306Z,5.13
2023-05-14T05:54:01.097Z,5.55
2023-05-14T05:57:03.579Z,5.60
2023-05-14T06:00:13.345Z,5.50
2023-05-14T06:03:16.046Z,6.10
2023-05-14T06:06:18.772Z,5.43
2023-05-14T06:09:21.287Z,5.47
2023-05-14T06:12:23.930Z,4.85
2023-05-14T06:15:26.286Z,5.97
2023-05-14T06:18:29.212Z,6.03
2023-05-14T06:21:31.683Z,5.20
2023-05-14T06:24:34.293Z,5.72
2023-05-14T06:27:36.776Z,5.78
2023-05-14T06:30:39.429Z,6.00
2023-05-14T06:33:42.232Z,5.62
2023-05-14T06:36:45.205Z,5.70
2023-05-14T06:39:50.223Z,5.35
2023-05-14T06:42:52.972Z,5.55
2023-05-14T06:45:55.610Z,5.60
2023-05-14T06:48:59.623Z,5.35
2023-05-14T06:52:02.277Z,6.00
2023-05-14T06:55:05.315Z,5.70
2023-05-14T06:58:08.137Z,5.90
2023-05-14T07:01:10.931Z,5.43
2023-05-14T07:04:13.455Z,5.15
2023-05-14T07:07:20.539Z,5.83
2023-05-14T07:10:23.330Z,6.03
2023-05-14T07:13:28.472Z,6.12
2023-05-14T07:16:31.436Z,6.28
2023-05-14T07:19:34.120Z,6.62
2023-05-14T07:22:36.501Z,6.07
2023-05-14T07:25:39.410Z,7.00
2023-05-14T07:28:41.901Z,6.55
2023-05-14T07:31:44.788Z,5.68
2023-05-14T07:34:47.385Z,5.55
2023-05-14T07:37:50.053Z,5.90
2023-05-14T07:40:52.752Z,5.85
2023-05-14T07:43:55.398Z,5.90
2023-05-14T07:46:57.729Z,5.97
2023-05-14T07:50:00.400Z,6.35
2023-05-14T07:53:02.703Z,6.27
2023-05-14T07:56:05.686Z,5.53
2023-05-14T07:59:08.045Z,5.80
2023-05-14T08:02:12.750Z,6.30
2023-05-14T08:05:15.903Z,5.70
2023-05-14T08:08:18.327Z,6.27
2023-05-14T08:11:22.387Z,6.25
2023-05-14T08:14:24.756Z,6.28
2023-05-14T08:17:27.468Z,6.22
2023-05-14T08:20:31.185Z,7.22
2023-05-14T08:23:33.867Z,6.03
2023-05-14T08:26:36.386Z,6.60
2023-05-14T08:29:39.082Z,6.57
2023-05-14T08:32:42.405Z,6.62
2023-05-14T08:35:46.213Z,6.47
2023-05-14T08:38:50.567Z,6.77
2023-05-14T08:41:53.748Z,6.95
2023-05-14T08:45:06.225Z,6.97
2023-05-14T08:48:14.595Z,7.22
2023-05-14T08:51:17.066Z,7.15
2023-05-14T08:54:22.512Z,7.23
2023-05-14T08:57:26.647Z,6.60
2023-05-14T09:00:29.827Z,6.55
2023-05-14T09:03:33.309Z,7.28
2023-05-14T09:06:40.024Z,6.75
2023-05-14T09:09:45.083Z,6.90
2023-05-14T09:12:47.894Z,7.03
2023-05-14T09:15:51.334Z,7.37
2023-05-14T09:18:54.882Z,7.40
2023-05-14T09:21:59.228Z,7.32
2023-05-14T09:25:06.423Z,6.70
2023-05-14T09:28:09.519Z,7.57
2023-05-14T09:31:12.307Z,7.15
2023-05-14T09:34:27.652Z,7.35
2023-05-14T09:37:30.314Z,6.90
2023-05-14T09:40:32.669Z,7.03
2023-05-14T09:43:35.418Z,6.37
2023-05-14T09:46:37.803Z,7.57
2023-05-14T09:49:40.467Z,6.72
2023-05-14T09:52:42.791Z,7.47
2023-05-14T09:55:46.106Z,7.97
2023-05-14T09:58:48.830Z,7.37
2023-05-14T10:01:52.819Z,7.07
2023-05-14T10:05:00.907Z,7.12
2023-05-14T10:08:13.410Z,7.78
2023-05-14T10:11:25.081Z,8.57
2023-05-14T10:14:36.248Z,7.78
2023-05-14T10:17:42.788Z,8.90
2023-05-14T10:20:48.992Z,8.30
2023-05-14T10:23:53.709Z,7.15
2023-05-14T10:26:56.466Z,14.70
2023-05-14T10:29:59.129Z,9.75
2023-05-14T10:33:09.506Z,10.98
2023-05-14T10:36:12.309Z,8.00
2023-05-14T10:39:14.631Z,8.98
2023-05-14T10:42:27.458Z,8.97
2023-05-14T10:45:30.533Z,8.52
2023-05-14T10:48:34.232Z,7.85
2023-05-14T10:51:36.752Z,8.63
2023-05-14T10:54:39.658Z,8.23
2023-05-14T10:57:46.249Z,8.43
2023-05-14T11:00:50.059Z,8.52
2023-05-14T11:03:53.502Z,7.90
2023-05-14T11:06:57.223Z,8.70
2023-05-14T11:10:04.985Z,7.70
2023-05-14T11:13:07.923Z,7.70
2023-05-14T11:19:18.005Z,8.43
2023-05-14T11:22:20.988Z,8.55
2023-05-14T11:25:25.740Z,9.10
2023-05-14T11:28:28.196Z,8.50
2023-05-14T11:31:30.974Z,8.82
2023-05-14T11:34:34.778Z,9.57
2023-05-14T11:37:38.512Z,9.18
2023-05-14T11:40:41.178Z,8.73
2023-05-14T11:43:43.997Z,9.13
2023-05-14T11:46:59.144Z,9.10
2023-05-14T11:50:01.865Z,10.38
2023-05-14T11:53:04.317Z,9.18
2023-05-14T11:56:09.639Z,10.95
2023-05-14T11:59:12.620Z,9.00
2023-05-14T12:02:18.224Z,8.60
2023-05-14T12:05:21.007Z,8.82
2023-05-14T12:08:27.264Z,8.30
2023-05-14T12:11:33.191Z,8.75
2023-05-14T12:14:42.611Z,8.30
2023-05-14T12:17:52.185Z,8.02
2023-05-14T12:20:54.990Z,8.20
2023-05-14T12:24:00.996Z,8.05
2023-05-14T12:27:03.734Z,8.40
2023-05-14T12:33:14.747Z,9.35
2023-05-14T12:36:21.716Z,8.43
2023-05-14T12:39:27.459Z,9.32
2023-05-14T12:42:30.137Z,9.13
2023-05-14T12:45:32.561Z,8.40
2023-05-14T12:48:35.291Z,8.60
2023-05-14T12:51:37.632Z,8.00
2023-05-14T12:54:42.898Z,8.40
2023-05-14T12:57:45.406Z,8.40
2023-05-14T13:00:48.688Z,7.63
2023-05-14T13:03:51.269Z,8.25
2023-05-14T13:06:53.958Z,8.75
2023-05-14T13:09:56.558Z,8.70
2023-05-14T13:12:59.276Z,8.85
2023-05-14T13:16:01.689Z,9.10
2023-05-14T13:19:04.414Z,8.82
2023-05-14T13:22:06.782Z,10.00
2023-05-14T13:25:09.831Z,9.05
2023-05-14T13:28:12.220Z,9.32
2023-05-14T13:31:14.954Z,9.17
2023-05-14T13:34:17.363Z,8.65
2023-05-14T13:37:20.149Z,10.02
2023-05-14T13:40:22.754Z,9.52
2023-05-14T13:43:25.570Z,9.70
2023-05-14T13:46:28.268Z,9.07
2023-05-14T13:49:32.202Z,9.23
2023-05-14T13:52:34.770Z,11.05
2023-05-14T13:55:37.560Z,9.75
2023-05-14T13:58:40.073Z,10.55
2023-05-14T14:01:43.346Z,9.80
2023-05-14T14:04:46.325Z,10.45
2023-05-14T14:07:50.498Z,10.45
2023-05-14T14:10:55.919Z,10.10
2023-05-14T14:13:58.424Z,10.18
2023-05-14T14:17:01.195Z,10.43
2023-05-14T14:20:05.977Z,10.38
2023-05-14T14:23:09.134Z,10.68
2023-05-14T14:26:11.665Z,11.18
2023-05-14T14:29:14.378Z,11.65
2023-05-14T14:32:17.096Z,10.27
2023-05-14T14:35:20.402Z,10.75
2023-05-14T14:38:23.149Z,9.77
2023-05-14T14:41:26.828Z,10.35
2023-05-14T14:44:29.133Z,10.43
2023-05-14T14:47:32.904Z,10.73
2023-05-14T14:50:35.249Z,10.50
2023-05-14T14:53:38.005Z,9.93
2023-05-14T14:56:40.622Z,7.75
2023-05-14T14:59:43.362Z,7.55
2023-05-14T15:02:45.936Z,7.57
2023-05-14T15:05:49.216Z,6.32
2023-05-14T15:08:51.718Z,6.62
2023-05-14T15:11:54.621Z,5.43
2023-05-14T15:14:56.985Z,6.30
2023-05-14T15:17:59.858Z,5.30
2023-05-14T15:21:02.276Z,5.32
2023-05-14T15:24:05.646Z,5.85
2023-05-14T15:27:08.009Z,5.90
2023-05-14T15:30:11.506Z,5.72
2023-05-14T15:33:17.958Z,6.13
2023-05-14T15:36:20.683Z,5.70
2023-05-14T15:39:22.998Z,5.82
2023-05-14T15:42:26.981Z,5.22
2023-05-14T15:45:29.401Z,6.15
2023-05-14T15:48:32.236Z,6.17
2023-05-14T15:51:34.977Z,6.32
2023-05-14T15:54:37.781Z,6.18
2023-05-14T15:57:40.307Z,5.45
2023-05-14T16:00:43.009Z,6.30
2023-05-14T16:03:45.746Z,6.87
2023-05-14T16:06:48.162Z,6.03
2023-05-14T16:09:50.954Z,6.12
2023-05-14T16:12:53.409Z,5.80
2023-05-14T16:15:56.459Z,6.68
2023-05-14T16:18:59.739Z,6.30
2023-05-14T16:22:02.527Z,6.47
2023-05-14T16:25:05.945Z,6.95
2023-05-14T16:28:08.884Z,5.65
2023-05-14T16:31:11.348Z,5.05
2023-05-14T16:34:14.110Z,5.60
2023-05-14T16:37:17.410Z,4.60
2023-05-14T16:40:20.309Z,5.53
2023-05-14T16:43:22.708Z,5.22
2023-05-14T16:46:25.419Z,5.32
2023-05-14T16:49:27.977Z,5.03
2023-05-14T16:52:30.936Z,5.35
2023-05-14T16:55:33.300Z,5.07
2023-05-14T16:58:35.902Z,5.25
2023-05-14T17:01:38.338Z,6.12
2023-05-14T17:04:42.285Z,5.30
2023-05-14T17:07:44.654Z,5.60
2023-05-14T17:10:47.276Z,5.30
2023-05-14T17:13:49.596Z,5.12
2023-05-14T17:16:52.239Z,4.85
2023-05-14T17:19:54.580Z,5.07
2023-05-14T17:22:57.199Z,5.25
2023-05-14T17:25:59.662Z,5.35
2023-05-14T17:29:02.289Z,5.40
2023-05-14T17:32:05.085Z,5.12
2023-05-14T17:35:09.657Z,5.40
2023-05-14T17:38:12.202Z,6.35
2023-05-14T17:41:14.918Z,6.18
2023-05-14T17:44:17.278Z,6.78
2023-05-14T17:47:20.680Z,5.80
2023-05-14T17:50:23.036Z,6.80
2023-05-14T17:53:25.808Z,7.40
2023-05-14T17:56:28.279Z,6.93
2023-05-14T17:59:30.942Z,6.57
2023-05-14T18:02:33.481Z,6.65
2023-05-14T18:05:36.653Z,6.47
2023-05-14T18:08:39.035Z,7.15
2023-05-14T18:11:41.803Z,6.82
2023-05-14T18:14:45.574Z,6.62
2023-05-14T18:17:52.080Z,7.37
2023-05-14T18:20:54.757Z,6.53
2023-05-14T18:23:57.392Z,7.12
2023-05-14T18:27:00.068Z,7.53
2023-05-14T18:30:03.393Z,7.50
2023-05-14T18:33:05.740Z,6.97
2023-05-14T18:36:08.426Z,6.43
2023-05-14T18:39:10.901Z,8.13
2023-05-14T18:42:13.852Z,7.78
2023-05-14T18:45:16.529Z,6.32
2023-05-14T18:48:19.291Z,7.32
2023-05-14T18:51:21.685Z,6.87
2023-05-14T18:54:24.328Z,7.30
2023-05-14T18:57:29.202Z,7.15
2023-05-14T19:00:31.968Z,8.55
2023-05-14T19:03:34.371Z,7.32
2023-05-14T19:06:38.587Z,6.93
2023-05-14T19:09:41.059Z,8.25
2023-05-14T19:12:43.755Z,7.90
2023-05-14T19:15:46.237Z,6.90
2023-05-14T19:18:49.171Z,7.07
2023-05-14T19:21:51.654Z,7.20
2023-05-14T19:24:54.303Z,7.53
2023-05-14T19:27:57.036Z,7.40
2023-05-14T19:30:59.904Z,7.78
2023-05-14T19:34:02.215Z,8.07
2023-05-14T19:37:05.112Z,7.23
2023-05-14T19:40:07.998Z,8.25
2023-05-14T19:43:11.855Z,7.80
2023-05-14T19:46:14.943Z,7.75
2023-05-14T19:49:17.571Z,9.05
2023-05-14T19:52:19.954Z,8.37
2023-05-14T19:55:22.750Z,8.90
2023-05-14T19:58:25.804Z,8.60
2023-05-14T20:01:29.556Z,8.23
2023-05-14T20:04:33.250Z,8.18
2023-05-14T20:07:36.465Z,7.30
2023-05-14T20:10:41.480Z,6.60
2023-05-14T20:13:43.869Z,7.18
2023-05-14T20:16:47.043Z,6.07
2023-05-14T20:19:49.519Z,6.97
2023-05-14T20:22:52.284Z,6.30
2023-05-14T20:25:54.609Z,6.70
2023-05-14T20:28:57.244Z,5.93
2023-05-14T20:31:59.597Z,6.40
2023-05-14T20:35:02.788Z,6.85
2023-05-14T20:38:05.954Z,6.43
2023-05-14T20:41:08.615Z,6.20
2023-05-14T20:44:11.133Z,6.90
2023-05-14T20:47:17.774Z,6.35
2023-05-14T20:50:20.199Z,6.47
2023-05-14T20:53:23.148Z,6.40
2023-05-14T20:56:26.504Z,6.50
2023-05-14T20:59:29.208Z,7.93
2023-05-14T21:02:32.068Z,7.55
2023-05-14T21:05:34.908Z,7.43
2023-05-14T21:08:39.244Z,7.77
2023-05-14T21:11:41.842Z,7.07
2023-05-14T21:14:44.175Z,7.30
2023-05-14T21:17:46.909Z,7.10
2023-05-14T21:20:49.236Z,7.22
2023-05-14T21:23:51.914Z,7.07
2023-05-14T21:26:54.307Z,7.95
2023-05-14T21:29:57.043Z,7.53
2023-05-14T21:32:59.410Z,7.35
2023-05-14T21:36:02.251Z,7.80
2023-05-14T21:39:05.557Z,6.97
2023-05-14T21:42:08.553Z,7.07
2023-05-14T21:45:11.111Z,7.47
2023-05-14T21:48:13.922Z,6.65
2023-05-14T21:51:16.333Z,8.32
2023-05-14T21:54:19.229Z,7.17
2023-05-14T21:57:21.748Z,6.78
2023-05-14T22:00:24.364Z,6.50
2023-05-14T22:03:27.002Z,5.97
2023-05-14T22:06:29.323Z,6.25
2023-05-14T22:09:32.044Z,5.90
2023-05-14T22:12:34.398Z,6.10
2023-05-14T22:15:37.626Z,5.80
2023-05-14T22:18:40.180Z,5.97
2023-05-14T22:21:42.825Z,5.80
2023-05-14T22:24:45.133Z,4.97
2023-05-14T22:27:47.788Z,5.60
2023-05-14T22:30:50.236Z,5.80
2023-05-14T22:33:53.059Z,5.25
2023-05-14T22:36:55.390Z,5.70
2023-05-14T22:39:58.087Z,5.23
2023-05-14T22:43:00.420Z,5.07
2023-05-14T22:46:03.459Z,4.97
2023-05-14T22:49:05.928Z,5.87
2023-05-14T22:52:08.984Z,6.28
2023-05-14T22:55:11.611Z,5.67
2023-05-14T22:58:14.225Z,5.72
2023-05-14T23:01:16.617Z,5.87
2023-05-14T23:04:19.387Z,6.25
2023-05-14T23:07:22.109Z,6.50
2023-05-14T23:10:24.801Z,5.90
2023-05-14T23:13:27.168Z,6.03
2023-05-14T23:16:29.835Z,6.15
2023-05-14T23:19:32.252Z,6.15
2023-05-14T23:22:34.881Z,6.07
2023-05-14T23:25:37.254Z,6.03
2023-05-14T23:28:39.864Z,6.37
2023-05-14T23:31:43.630Z,6.90
2023-05-14T23:34:46.328Z,7.00
2023-05-14T23:37:50.906Z,7.40
2023-05-14T23:40:53.628Z,6.90
2023-05-14T23:43:55.927Z,7.53
2023-05-14T23:46:58.646Z,7.93
2023-05-14T23:50:01.068Z,7.22
2023-05-14T23:53:03.920Z,7.62
2023-05-14T23:56:06.518Z,7.23
2023-05-14T23:59:09.214Z,7.80
